• Join FlightAware (Why Join?)
  • Login
  • US Flag 
06:05AM EDT


 

Airport Tracker/Info


-or-


 

Live Flight TrackerFlight Track Log ✈ N6502A ✈ 21-Oct-2013 ✈ KCHO - KLNS

Flight Track Log - Related Links

Times and Time Zones

All times are in EDT time to prevent confusion due to time zone crossing. See the N6502A flight status page for this flight to view local times or setup timezone preferences in your user account.

Time Position Orientation Groundspeed Altitude Reporting Facility
EDT Latitude Longitude Course Direction KTS MPH feet Rate Location/Type
04:45PM 38.1167 -78.4667 201° Southwest 122 140 1,700  Level Potomac TRACON
04:46PM 38.0833 -78.4833 201° Southwest 130 150 2,600 900 Climbing Potomac TRACON
04:47PM 38.0500 -78.4667 159° South 144 166 3,500 600 Climbing Potomac TRACON
04:48PM 38.0000 -78.4333 152° Southeast 169 194 3,900 360 Climbing Potomac TRACON
04:49PM 38.0167 -78.3833 67° East 175 201 4,300 540 Climbing Potomac TRACON
04:50PM 38.0500 -78.3500 38° Northeast 174 200 5,000 720 Climbing Potomac TRACON
04:51PM 38.1000 -78.3500 360° North 167 192 5,700 660 Climbing Potomac TRACON
04:52PM 38.1333 -78.3333 21° North 171 197 6,300 600 Climbing Potomac TRACON
04:53PM 38.1833 -78.3167 15° North 171 197 6,900 300 Climbing Potomac TRACON
04:54PM 38.2333 -78.2833 28° Northeast 187 215 7,000  Climbing Potomac TRACON
04:55PM 38.2833 -78.2667 15° North 193 222 7,000  Level Potomac TRACON
04:56PM 38.3333 -78.2500 15° North 192 221 7,000  Level Potomac TRACON
04:57PM 38.3833 -78.2333 15° North 194 223 7,000  Level Potomac TRACON
04:58PM 38.4333 -78.2167 15° North 193 222 7,000  Level Potomac TRACON
04:59PM 38.4833 -78.2000 15° North 192 221 7,000  Level Potomac TRACON
05:00PM 38.5333 -78.1667 28° Northeast 189 217 7,000  Level Potomac TRACON
05:01PM 38.6000 -78.1500 11° North 192 221 7,000  Level Potomac TRACON
05:02PM 38.6500 -78.1333 15° North 191 220 7,000  Level Potomac TRACON
05:03PM 38.7000 -78.1167 15° North 195 224 7,000  Level Potomac TRACON
05:04PM 38.7500 -78.1000 15° North 195 224 7,000  Level Potomac TRACON
05:05PM 38.8000 -78.0667 27° Northeast 198 228 7,000  Level Potomac TRACON
05:06PM 38.8500 -78.0500 15° North 194 223 7,000  Level Potomac TRACON
05:07PM 38.9000 -78.0333 15° North 196 226 7,000  Level Potomac TRACON
05:08PM 38.9500 -78.0000 27° Northeast 194 223 7,000  Level Potomac TRACON
05:09PM 39.0000 -77.9833 15° North 190 219 7,000  Level Potomac TRACON
05:10PM 39.0500 -77.9667 15° North 191 220 7,000  Level Potomac TRACON
05:11PM 39.1000 -77.9500 15° North 195 224 7,000  Level Potomac TRACON
05:12PM 39.1667 -77.9333 11° North 196 226 7,000  Level Potomac TRACON
05:13PM 39.2167 -77.9167 14° North 192 221 7,000  Level Potomac TRACON
05:14PM 39.2667 -77.8833 27° Northeast 192 221 7,000  Level Potomac TRACON
05:15PM 39.3167 -77.8667 14° North 190 219 7,000  Level Potomac TRACON
05:16PM 39.3667 -77.8500 14° North 190 219 7,000  Level Potomac TRACON
05:17PM 39.4000 -77.8000 49° Northeast 197 227 7,000  Level Potomac TRACON
05:18PM 39.4333 -77.7500 49° Northeast 197 227 7,000  Level Potomac TRACON
05:19PM 39.4667 -77.6833 57° Northeast 198 228 7,000  Level Potomac TRACON
05:20PM 39.4833 -77.6333 67° East 201 231 7,000  Level Potomac TRACON
05:21PM 39.5167 -77.5667 57° Northeast 199 229 7,000  Level Potomac TRACON
05:22PM 39.5500 -77.5167 49° Northeast 199 229 7,000  Level Potomac TRACON
05:23PM 39.5667 -77.4500 72° East 201 231 7,000  Level Potomac TRACON
05:25PM 39.5966 -77.3751 63° Northeast  Level FlightAware Approximate
05:32PM 39.7778 -77.0121 59° Northeast  Level FlightAware Approximate
05:33PM 39.8009 -76.9580 61° Northeast  Level FlightAware Approximate
05:34PM 39.8236 -76.9035 61° Northeast  Level FlightAware Approximate
05:35PM 39.8463 -76.8490 62° Northeast  Level FlightAware Approximate
05:36PM 39.8715 -76.8000 North  Level FlightAware Approximate
05:37PM 39.8944 -76.7557 72° East  Level FlightAware Approximate
05:38PM 39.9162 -76.7010 57° Northeast  Level FlightAware Approximate
05:39PM 39.9398 -76.6473 66° East  Level FlightAware Approximate
05:40PM 39.9620 -76.5927 57° Northeast  Level FlightAware Approximate
05:41PM 39.9905 -76.5451 66° East  Level FlightAware Approximate
05:42PM 40.0131 -76.4905 57° Northeast  Level FlightAware Approximate
05:43PM 40.0391 -76.4385 57° Northeast  Level FlightAware Approximate
05:44PM 40.0651 -76.3864 57° Northeast  Level FlightAware Approximate
05:45PM 40.0912 -76.3343 57° Northeast  Level FlightAware Approximate
05:46PM 40.1167 -76.2833 57° Northeast  Level FlightAware Approximate
05:47PM 40.1224 -76.2944 57° Northeast  Level Estimated
05:48PM 40.1224 -76.2944 57° Northeast  Level Estimated
05:49PM 40.1224 -76.2944 57° Northeast  Level Estimated
05:50PM 40.1224 -76.2944 57° Northeast  Level Estimated
05:51PM 40.1224 -76.2944 57° Northeast  Level Estimated